sensor_id;sensor_type;location;lat;lon;timestamp;P1;durP1;ratioP1;P2;durP2;ratioP2
15693;SDS011;7947;48.834;9.132;2023-07-20T00:01:16;2.55;;;1.50;;
15693;SDS011;7947;48.834;9.132;2023-07-20T00:04:19;1.83;;;1.35;;
15693;SDS011;7947;48.834;9.132;2023-07-20T00:07:23;1.92;;;1.38;;
15693;SDS011;7947;48.834;9.132;2023-07-20T00:10:26;2.50;;;1.40;;
15693;SDS011;7947;48.834;9.132;2023-07-20T00:13:29;2.35;;;1.50;;
15693;SDS011;7947;48.834;9.132;2023-07-20T00:16:32;1.98;;;1.48;;
15693;SDS011;7947;48.834;9.132;2023-07-20T00:19:35;1.92;;;1.35;;
15693;SDS011;7947;48.834;9.132;2023-07-20T00:22:39;1.30;;;1.10;;
15693;SDS011;7947;48.834;9.132;2023-07-20T00:25:42;1.52;;;1.25;;
15693;SDS011;7947;48.834;9.132;2023-07-20T00:28:45;3.28;;;1.35;;
15693;SDS011;7947;48.834;9.132;2023-07-20T00:31:48;3.42;;;1.40;;
15693;SDS011;7947;48.834;9.132;2023-07-20T00:34:52;1.70;;;1.10;;
15693;SDS011;7947;48.834;9.132;2023-07-20T00:37:56;1.98;;;1.00;;
15693;SDS011;7947;48.834;9.132;2023-07-20T00:40:59;2.78;;;1.30;;
15693;SDS011;7947;48.834;9.132;2023-07-20T00:44:02;1.13;;;0.88;;
15693;SDS011;7947;48.834;9.132;2023-07-20T00:47:05;7.20;;;1.77;;
15693;SDS011;7947;48.834;9.132;2023-07-20T00:50:09;1.45;;;0.98;;
15693;SDS011;7947;48.834;9.132;2023-07-20T00:53:14;3.10;;;1.20;;
15693;SDS011;7947;48.834;9.132;2023-07-20T00:56:17;3.03;;;1.20;;
15693;SDS011;7947;48.834;9.132;2023-07-20T00:59:21;1.85;;;1.10;;
15693;SDS011;7947;48.834;9.132;2023-07-20T01:02:26;1.15;;;0.95;;
15693;SDS011;7947;48.834;9.132;2023-07-20T01:05:33;4.25;;;1.58;;
15693;SDS011;7947;48.834;9.132;2023-07-20T01:08:46;1.23;;;1.00;;
15693;SDS011;7947;48.834;9.132;2023-07-20T01:11:59;1.58;;;0.90;;
15693;SDS011;7947;48.834;9.132;2023-07-20T01:15:07;1.52;;;1.10;;
15693;SDS011;7947;48.834;9.132;2023-07-20T01:18:10;1.95;;;1.02;;
15693;SDS011;7947;48.834;9.132;2023-07-20T01:21:16;2.10;;;1.02;;
15693;SDS011;7947;48.834;9.132;2023-07-20T01:24:46;2.05;;;1.13;;
15693;SDS011;7947;48.834;9.132;2023-07-20T01:28:15;2.35;;;1.08;;
15693;SDS011;7947;48.834;9.132;2023-07-20T01:31:37;2.35;;;1.20;;
15693;SDS011;7947;48.834;9.132;2023-07-20T01:34:42;1.33;;;1.20;;
15693;SDS011;7947;48.834;9.132;2023-07-20T01:37:46;2.45;;;1.40;;
15693;SDS011;7947;48.834;9.132;2023-07-20T01:40:50;1.77;;;1.17;;
15693;SDS011;7947;48.834;9.132;2023-07-20T01:43:57;2.38;;;1.10;;
15693;SDS011;7947;48.834;9.132;2023-07-20T01:47:01;1.45;;;1.10;;
15693;SDS011;7947;48.834;9.132;2023-07-20T01:50:05;2.80;;;1.25;;
15693;SDS011;7947;48.834;9.132;2023-07-20T01:53:09;4.07;;;1.40;;
15693;SDS011;7947;48.834;9.132;2023-07-20T01:56:12;1.92;;;1.13;;
15693;SDS011;7947;48.834;9.132;2023-07-20T01:59:15;1.92;;;1.08;;
15693;SDS011;7947;48.834;9.132;2023-07-20T02:02:20;1.35;;;0.90;;
15693;SDS011;7947;48.834;9.132;2023-07-20T02:05:23;0.93;;;0.80;;
15693;SDS011;7947;48.834;9.132;2023-07-20T02:08:26;2.00;;;1.35;;
15693;SDS011;7947;48.834;9.132;2023-07-20T02:11:29;2.08;;;1.40;;
15693;SDS011;7947;48.834;9.132;2023-07-20T02:14:32;1.75;;;1.20;;
15693;SDS011;7947;48.834;9.132;2023-07-20T02:17:36;2.38;;;1.23;;
15693;SDS011;7947;48.834;9.132;2023-07-20T02:20:41;1.58;;;1.38;;
15693;SDS011;7947;48.834;9.132;2023-07-20T02:23:45;1.48;;;1.27;;
15693;SDS011;7947;48.834;9.132;2023-07-20T02:26:48;1.70;;;1.20;;
15693;SDS011;7947;48.834;9.132;2023-07-20T02:29:51;1.90;;;1.30;;
15693;SDS011;7947;48.834;9.132;2023-07-20T02:32:55;1.33;;;1.20;;
15693;SDS011;7947;48.834;9.132;2023-07-20T02:36:00;1.60;;;1.30;;
15693;SDS011;7947;48.834;9.132;2023-07-20T02:39:03;2.63;;;1.58;;
15693;SDS011;7947;48.834;9.132;2023-07-20T02:42:06;2.15;;;1.27;;
15693;SDS011;7947;48.834;9.132;2023-07-20T02:45:09;1.60;;;1.40;;
15693;SDS011;7947;48.834;9.132;2023-07-20T02:48:13;1.75;;;1.45;;
15693;SDS011;7947;48.834;9.132;2023-07-20T02:51:16;1.55;;;1.30;;
15693;SDS011;7947;48.834;9.132;2023-07-20T02:54:19;2.10;;;1.38;;
15693;SDS011;7947;48.834;9.132;2023-07-20T02:57:22;2.72;;;1.48;;
15693;SDS011;7947;48.834;9.132;2023-07-20T03:00:25;2.08;;;1.42;;
15693;SDS011;7947;48.834;9.132;2023-07-20T03:03:29;2.58;;;1.40;;
15693;SDS011;7947;48.834;9.132;2023-07-20T03:06:32;2.08;;;1.40;;
15693;SDS011;7947;48.834;9.132;2023-07-20T03:09:37;2.85;;;1.40;;
15693;SDS011;7947;48.834;9.132;2023-07-20T03:12:40;2.63;;;1.10;;
15693;SDS011;7947;48.834;9.132;2023-07-20T03:15:43;3.78;;;1.42;;
15693;SDS011;7947;48.834;9.132;2023-07-20T03:18:48;2.42;;;1.52;;
15693;SDS011;7947;48.834;9.132;2023-07-20T03:21:51;1.95;;;1.45;;
15693;SDS011;7947;48.834;9.132;2023-07-20T03:24:54;1.95;;;1.45;;
15693;SDS011;7947;48.834;9.132;2023-07-20T03:27:57;1.60;;;1.30;;
15693;SDS011;7947;48.834;9.132;2023-07-20T03:31:00;1.75;;;1.33;;
15693;SDS011;7947;48.834;9.132;2023-07-20T03:34:04;2.95;;;1.63;;
15693;SDS011;7947;48.834;9.132;2023-07-20T03:37:07;1.83;;;1.48;;
15693;SDS011;7947;48.834;9.132;2023-07-20T03:40:10;2.33;;;1.35;;
15693;SDS011;7947;48.834;9.132;2023-07-20T03:43:14;1.85;;;1.40;;
15693;SDS011;7947;48.834;9.132;2023-07-20T03:46:17;2.47;;;1.40;;
15693;SDS011;7947;48.834;9.132;2023-07-20T03:49:21;3.33;;;1.30;;
15693;SDS011;7947;48.834;9.132;2023-07-20T03:52:24;3.50;;;1.38;;
15693;SDS011;7947;48.834;9.132;2023-07-20T03:55:27;3.33;;;1.25;;
15693;SDS011;7947;48.834;9.132;2023-07-20T03:58:29;2.40;;;1.67;;
15693;SDS011;7947;48.834;9.132;2023-07-20T04:01:32;2.13;;;1.05;;
15693;SDS011;7947;48.834;9.132;2023-07-20T04:04:39;1.60;;;1.20;;
15693;SDS011;7947;48.834;9.132;2023-07-20T04:07:43;1.95;;;1.42;;
15693;SDS011;7947;48.834;9.132;2023-07-20T04:10:45;3.45;;;1.52;;
15693;SDS011;7947;48.834;9.132;2023-07-20T04:13:48;4.45;;;1.45;;
15693;SDS011;7947;48.834;9.132;2023-07-20T04:16:51;2.63;;;1.58;;
15693;SDS011;7947;48.834;9.132;2023-07-20T04:19:55;1.95;;;1.45;;
15693;SDS011;7947;48.834;9.132;2023-07-20T04:22:58;1.83;;;1.63;;
15693;SDS011;7947;48.834;9.132;2023-07-20T04:26:01;2.03;;;1.48;;
15693;SDS011;7947;48.834;9.132;2023-07-20T04:29:04;1.67;;;1.33;;
15693;SDS011;7947;48.834;9.132;2023-07-20T04:32:07;2.50;;;1.17;;
15693;SDS011;7947;48.834;9.132;2023-07-20T04:35:25;1.63;;;1.48;;
15693;SDS011;7947;48.834;9.132;2023-07-20T04:38:54;1.42;;;1.05;;
15693;SDS011;7947;48.834;9.132;2023-07-20T04:41:57;3.83;;;1.67;;
15693;SDS011;7947;48.834;9.132;2023-07-20T04:45:00;2.78;;;1.35;;
15693;SDS011;7947;48.834;9.132;2023-07-20T04:48:04;2.58;;;1.50;;
15693;SDS011;7947;48.834;9.132;2023-07-20T04:51:12;2.30;;;1.38;;
15693;SDS011;7947;48.834;9.132;2023-07-20T04:54:15;2.55;;;1.38;;
15693;SDS011;7947;48.834;9.132;2023-07-20T04:57:19;2.33;;;1.25;;
15693;SDS011;7947;48.834;9.132;2023-07-20T05:00:26;1.63;;;1.10;;
15693;SDS011;7947;48.834;9.132;2023-07-20T05:03:29;2.28;;;1.30;;
15693;SDS011;7947;48.834;9.132;2023-07-20T05:06:33;3.20;;;1.20;;
15693;SDS011;7947;48.834;9.132;2023-07-20T05:09:36;1.48;;;1.30;;
15693;SDS011;7947;48.834;9.132;2023-07-20T05:12:39;1.60;;;1.45;;
15693;SDS011;7947;48.834;9.132;2023-07-20T05:15:41;3.47;;;1.60;;
15693;SDS011;7947;48.834;9.132;2023-07-20T05:18:45;2.63;;;1.35;;
15693;SDS011;7947;48.834;9.132;2023-07-20T05:21:49;3.35;;;1.50;;
15693;SDS011;7947;48.834;9.132;2023-07-20T05:24:52;1.95;;;1.17;;
15693;SDS011;7947;48.834;9.132;2023-07-20T05:27:54;6.07;;;2.63;;
15693;SDS011;7947;48.834;9.132;2023-07-20T05:30:57;3.10;;;1.30;;
15693;SDS011;7947;48.834;9.132;2023-07-20T05:34:01;3.35;;;1.88;;
15693;SDS011;7947;48.834;9.132;2023-07-20T05:37:06;2.92;;;1.60;;
15693;SDS011;7947;48.834;9.132;2023-07-20T05:40:09;2.03;;;1.20;;
15693;SDS011;7947;48.834;9.132;2023-07-20T05:43:13;2.20;;;1.40;;
15693;SDS011;7947;48.834;9.132;2023-07-20T05:46:16;1.20;;;1.10;;
15693;SDS011;7947;48.834;9.132;2023-07-20T05:49:22;2.53;;;1.38;;
15693;SDS011;7947;48.834;9.132;2023-07-20T05:52:26;3.15;;;1.20;;
15693;SDS011;7947;48.834;9.132;2023-07-20T05:55:29;2.88;;;1.27;;
15693;SDS011;7947;48.834;9.132;2023-07-20T05:58:32;2.10;;;1.38;;
15693;SDS011;7947;48.834;9.132;2023-07-20T06:01:35;2.47;;;1.17;;
15693;SDS011;7947;48.834;9.132;2023-07-20T06:04:38;4.15;;;1.27;;
15693;SDS011;7947;48.834;9.132;2023-07-20T06:07:43;1.98;;;1.17;;
15693;SDS011;7947;48.834;9.132;2023-07-20T06:10:49;1.52;;;1.13;;
15693;SDS011;7947;48.834;9.132;2023-07-20T06:13:55;1.83;;;1.00;;
15693;SDS011;7947;48.834;9.132;2023-07-20T06:16:57;2.30;;;1.30;;
15693;SDS011;7947;48.834;9.132;2023-07-20T06:20:00;1.52;;;0.93;;
15693;SDS011;7947;48.834;9.132;2023-07-20T06:23:05;2.33;;;1.30;;
15693;SDS011;7947;48.834;9.132;2023-07-20T06:26:08;2.30;;;1.27;;
15693;SDS011;7947;48.834;9.132;2023-07-20T06:29:11;1.88;;;1.00;;
15693;SDS011;7947;48.834;9.132;2023-07-20T06:32:14;2.33;;;0.90;;
15693;SDS011;7947;48.834;9.132;2023-07-20T06:35:17;2.05;;;1.10;;
15693;SDS011;7947;48.834;9.132;2023-07-20T06:38:21;3.17;;;1.42;;
15693;SDS011;7947;48.834;9.132;2023-07-20T06:41:27;2.28;;;1.02;;
15693;SDS011;7947;48.834;9.132;2023-07-20T06:44:33;2.53;;;1.20;;
15693;SDS011;7947;48.834;9.132;2023-07-20T06:47:37;3.83;;;1.58;;
15693;SDS011;7947;48.834;9.132;2023-07-20T06:50:40;2.30;;;1.05;;
15693;SDS011;7947;48.834;9.132;2023-07-20T06:53:46;1.08;;;0.90;;
15693;SDS011;7947;48.834;9.132;2023-07-20T06:56:49;1.30;;;1.08;;
15693;SDS011;7947;48.834;9.132;2023-07-20T06:59:55;1.30;;;1.10;;
15693;SDS011;7947;48.834;9.132;2023-07-20T07:02:58;2.45;;;1.30;;
15693;SDS011;7947;48.834;9.132;2023-07-20T07:06:01;2.08;;;1.27;;
15693;SDS011;7947;48.834;9.132;2023-07-20T07:09:06;1.77;;;0.90;;
15693;SDS011;7947;48.834;9.132;2023-07-20T07:12:11;2.08;;;1.27;;
15693;SDS011;7947;48.834;9.132;2023-07-20T07:15:14;2.88;;;1.27;;
15693;SDS011;7947;48.834;9.132;2023-07-20T07:18:18;2.40;;;1.15;;
15693;SDS011;7947;48.834;9.132;2023-07-20T07:21:22;4.38;;;1.25;;
15693;SDS011;7947;48.834;9.132;2023-07-20T07:24:26;5.18;;;1.40;;
15693;SDS011;7947;48.834;9.132;2023-07-20T07:27:35;1.58;;;1.10;;
15693;SDS011;7947;48.834;9.132;2023-07-20T07:30:38;1.90;;;1.20;;
15693;SDS011;7947;48.834;9.132;2023-07-20T07:33:41;1.77;;;1.15;;
15693;SDS011;7947;48.834;9.132;2023-07-20T07:36:44;1.35;;;1.08;;
15693;SDS011;7947;48.834;9.132;2023-07-20T07:39:50;2.00;;;1.25;;
15693;SDS011;7947;48.834;9.132;2023-07-20T07:42:52;2.05;;;1.17;;
15693;SDS011;7947;48.834;9.132;2023-07-20T07:45:55;1.90;;;1.13;;
15693;SDS011;7947;48.834;9.132;2023-07-20T07:48:58;2.35;;;1.35;;
15693;SDS011;7947;48.834;9.132;2023-07-20T07:52:01;2.30;;;1.25;;
15693;SDS011;7947;48.834;9.132;2023-07-20T07:55:06;1.30;;;1.20;;
15693;SDS011;7947;48.834;9.132;2023-07-20T07:58:09;1.63;;;1.30;;
15693;SDS011;7947;48.834;9.132;2023-07-20T08:01:12;3.13;;;1.20;;
15693;SDS011;7947;48.834;9.132;2023-07-20T08:04:16;1.40;;;1.30;;
15693;SDS011;7947;48.834;9.132;2023-07-20T08:07:19;2.47;;;1.45;;
15693;SDS011;7947;48.834;9.132;2023-07-20T08:10:23;4.03;;;1.40;;
15693;SDS011;7947;48.834;9.132;2023-07-20T08:13:26;1.58;;;1.02;;
15693;SDS011;7947;48.834;9.132;2023-07-20T08:16:29;3.70;;;1.30;;
15693;SDS011;7947;48.834;9.132;2023-07-20T08:19:32;2.42;;;1.02;;
15693;SDS011;7947;48.834;9.132;2023-07-20T08:22:36;1.80;;;1.23;;
15693;SDS011;7947;48.834;9.132;2023-07-20T08:25:41;2.25;;;1.17;;
15693;SDS011;7947;48.834;9.132;2023-07-20T08:28:45;2.40;;;1.10;;
15693;SDS011;7947;48.834;9.132;2023-07-20T08:31:49;2.00;;;1.50;;
15693;SDS011;7947;48.834;9.132;2023-07-20T08:34:52;3.58;;;1.30;;
15693;SDS011;7947;48.834;9.132;2023-07-20T08:37:55;1.30;;;1.20;;
15693;SDS011;7947;48.834;9.132;2023-07-20T08:41:00;1.95;;;1.00;;
15693;SDS011;7947;48.834;9.132;2023-07-20T08:44:03;2.25;;;1.48;;
15693;SDS011;7947;48.834;9.132;2023-07-20T08:47:06;1.40;;;1.30;;
15693;SDS011;7947;48.834;9.132;2023-07-20T08:50:10;1.23;;;1.08;;
15693;SDS011;7947;48.834;9.132;2023-07-20T08:53:15;3.22;;;1.08;;
15693;SDS011;7947;48.834;9.132;2023-07-20T08:56:19;2.72;;;1.20;;
15693;SDS011;7947;48.834;9.132;2023-07-20T08:59:23;2.15;;;1.15;;
15693;SDS011;7947;48.834;9.132;2023-07-20T09:02:27;0.95;;;0.90;;
15693;SDS011;7947;48.834;9.132;2023-07-20T09:05:30;1.20;;;0.95;;
15693;SDS011;7947;48.834;9.132;2023-07-20T09:08:37;1.30;;;1.10;;
15693;SDS011;7947;48.834;9.132;2023-07-20T09:11:42;4.82;;;1.75;;
15693;SDS011;7947;48.834;9.132;2023-07-20T09:14:45;2.38;;;1.40;;
15693;SDS011;7947;48.834;9.132;2023-07-20T09:17:48;2.53;;;1.00;;
15693;SDS011;7947;48.834;9.132;2023-07-20T09:20:52;1.10;;;1.00;;
15693;SDS011;7947;48.834;9.132;2023-07-20T09:23:56;1.85;;;1.20;;
15693;SDS011;7947;48.834;9.132;2023-07-20T09:27:01;2.42;;;1.40;;
15693;SDS011;7947;48.834;9.132;2023-07-20T09:30:06;1.85;;;1.40;;
15693;SDS011;7947;48.834;9.132;2023-07-20T09:33:18;2.55;;;1.15;;
15693;SDS011;7947;48.834;9.132;2023-07-20T09:36:26;1.45;;;1.10;;
15693;SDS011;7947;48.834;9.132;2023-07-20T09:39:32;3.10;;;1.10;;
15693;SDS011;7947;48.834;9.132;2023-07-20T09:43:07;1.50;;;0.98;;
15693;SDS011;7947;48.834;9.132;2023-07-20T09:46:13;1.73;;;1.00;;
15693;SDS011;7947;48.834;9.132;2023-07-20T09:49:39;1.23;;;0.93;;
15693;SDS011;7947;48.834;9.132;2023-07-20T09:52:45;1.02;;;0.80;;
15693;SDS011;7947;48.834;9.132;2023-07-20T09:55:53;0.80;;;0.60;;
15693;SDS011;7947;48.834;9.132;2023-07-20T09:58:57;0.85;;;0.70;;
15693;SDS011;7947;48.834;9.132;2023-07-20T10:02:01;3.33;;;1.13;;
15693;SDS011;7947;48.834;9.132;2023-07-20T10:05:08;1.42;;;0.80;;
15693;SDS011;7947;48.834;9.132;2023-07-20T10:08:13;0.65;;;0.60;;
15693;SDS011;7947;48.834;9.132;2023-07-20T10:11:23;0.60;;;0.60;;
15693;SDS011;7947;48.834;9.132;2023-07-20T10:14:33;0.80;;;0.80;;
15693;SDS011;7947;48.834;9.132;2023-07-20T10:17:43;1.70;;;0.93;;
15693;SDS011;7947;48.834;9.132;2023-07-20T10:20:52;2.00;;;0.90;;
15693;SDS011;7947;48.834;9.132;2023-07-20T10:24:00;1.85;;;0.80;;
15693;SDS011;7947;48.834;9.132;2023-07-20T10:27:05;1.67;;;0.88;;
15693;SDS011;7947;48.834;9.132;2023-07-20T10:30:09;2.03;;;1.00;;
15693;SDS011;7947;48.834;9.132;2023-07-20T10:33:13;1.17;;;0.98;;
15693;SDS011;7947;48.834;9.132;2023-07-20T10:36:21;1.10;;;0.70;;
15693;SDS011;7947;48.834;9.132;2023-07-20T10:39:31;1.75;;;0.85;;
15693;SDS011;7947;48.834;9.132;2023-07-20T10:42:35;0.73;;;0.70;;
15693;SDS011;7947;48.834;9.132;2023-07-20T10:45:49;1.00;;;0.73;;
15693;SDS011;7947;48.834;9.132;2023-07-20T10:48:59;1.00;;;0.90;;
15693;SDS011;7947;48.834;9.132;2023-07-20T10:52:04;1.35;;;1.00;;
15693;SDS011;7947;48.834;9.132;2023-07-20T10:55:11;1.30;;;0.80;;
15693;SDS011;7947;48.834;9.132;2023-07-20T10:58:16;0.95;;;0.70;;
15693;SDS011;7947;48.834;9.132;2023-07-20T11:01:22;1.08;;;0.77;;
15693;SDS011;7947;48.834;9.132;2023-07-20T11:04:37;1.15;;;0.70;;
15693;SDS011;7947;48.834;9.132;2023-07-20T11:07:41;0.77;;;0.52;;
15693;SDS011;7947;48.834;9.132;2023-07-20T11:10:44;1.50;;;0.70;;
15693;SDS011;7947;48.834;9.132;2023-07-20T11:13:53;1.88;;;0.57;;
15693;SDS011;7947;48.834;9.132;2023-07-20T11:16:57;1.23;;;0.80;;
15693;SDS011;7947;48.834;9.132;2023-07-20T11:20:13;1.38;;;0.88;;
15693;SDS011;7947;48.834;9.132;2023-07-20T11:23:21;1.00;;;0.73;;
15693;SDS011;7947;48.834;9.132;2023-07-20T11:26:24;0.77;;;0.57;;
15693;SDS011;7947;48.834;9.132;2023-07-20T11:29:27;2.25;;;0.80;;
15693;SDS011;7947;48.834;9.132;2023-07-20T11:32:35;1.90;;;0.82;;
15693;SDS011;7947;48.834;9.132;2023-07-20T11:35:41;1.58;;;0.70;;
15693;SDS011;7947;48.834;9.132;2023-07-20T11:38:45;1.05;;;0.70;;
15693;SDS011;7947;48.834;9.132;2023-07-20T11:41:49;1.10;;;0.60;;
15693;SDS011;7947;48.834;9.132;2023-07-20T11:44:53;1.10;;;0.63;;
15693;SDS011;7947;48.834;9.132;2023-07-20T11:48:00;1.08;;;0.77;;
15693;SDS011;7947;48.834;9.132;2023-07-20T11:51:03;0.88;;;0.60;;
15693;SDS011;7947;48.834;9.132;2023-07-20T11:54:07;1.10;;;0.70;;
15693;SDS011;7947;48.834;9.132;2023-07-20T11:57:15;1.02;;;0.90;;
15693;SDS011;7947;48.834;9.132;2023-07-20T12:00:19;0.82;;;0.70;;
15693;SDS011;7947;48.834;9.132;2023-07-20T12:03:23;1.08;;;0.68;;
15693;SDS011;7947;48.834;9.132;2023-07-20T12:06:27;0.82;;;0.70;;
15693;SDS011;7947;48.834;9.132;2023-07-20T12:09:31;0.93;;;0.80;;
15693;SDS011;7947;48.834;9.132;2023-07-20T12:12:51;0.63;;;0.63;;
15693;SDS011;7947;48.834;9.132;2023-07-20T12:15:55;1.10;;;0.80;;
15693;SDS011;7947;48.834;9.132;2023-07-20T12:19:03;1.08;;;0.68;;
15693;SDS011;7947;48.834;9.132;2023-07-20T12:22:07;1.45;;;0.80;;
15693;SDS011;7947;48.834;9.132;2023-07-20T12:25:10;1.02;;;0.75;;
15693;SDS011;7947;48.834;9.132;2023-07-20T12:28:13;0.68;;;0.68;;
15693;SDS011;7947;48.834;9.132;2023-07-20T12:31:17;1.67;;;0.82;;
15693;SDS011;7947;48.834;9.132;2023-07-20T12:34:22;0.85;;;0.68;;
15693;SDS011;7947;48.834;9.132;2023-07-20T12:37:25;0.93;;;0.80;;
15693;SDS011;7947;48.834;9.132;2023-07-20T12:40:28;1.50;;;0.70;;
15693;SDS011;7947;48.834;9.132;2023-07-20T12:43:31;1.15;;;0.90;;
15693;SDS011;7947;48.834;9.132;2023-07-20T12:46:34;0.80;;;0.70;;
15693;SDS011;7947;48.834;9.132;2023-07-20T12:49:40;1.60;;;0.80;;
15693;SDS011;7947;48.834;9.132;2023-07-20T12:52:46;1.27;;;0.70;;
15693;SDS011;7947;48.834;9.132;2023-07-20T12:55:49;1.42;;;0.85;;
15693;SDS011;7947;48.834;9.132;2023-07-20T12:58:52;1.05;;;0.63;;
15693;SDS011;7947;48.834;9.132;2023-07-20T13:01:55;0.88;;;0.63;;
15693;SDS011;7947;48.834;9.132;2023-07-20T13:04:59;0.60;;;0.50;;
15693;SDS011;7947;48.834;9.132;2023-07-20T13:08:02;1.40;;;0.70;;
15693;SDS011;7947;48.834;9.132;2023-07-20T13:11:09;1.50;;;0.95;;
15693;SDS011;7947;48.834;9.132;2023-07-20T13:14:12;1.08;;;0.80;;
15693;SDS011;7947;48.834;9.132;2023-07-20T13:17:15;1.52;;;0.98;;
15693;SDS011;7947;48.834;9.132;2023-07-20T13:20:20;0.77;;;0.75;;
15693;SDS011;7947;48.834;9.132;2023-07-20T13:23:23;1.08;;;0.88;;
15693;SDS011;7947;48.834;9.132;2023-07-20T13:26:25;0.85;;;0.80;;
15693;SDS011;7947;48.834;9.132;2023-07-20T13:29:28;1.20;;;0.75;;
15693;SDS011;7947;48.834;9.132;2023-07-20T13:32:31;0.70;;;0.70;;
15693;SDS011;7947;48.834;9.132;2023-07-20T13:35:36;1.00;;;0.80;;
15693;SDS011;7947;48.834;9.132;2023-07-20T13:38:42;0.80;;;0.60;;
15693;SDS011;7947;48.834;9.132;2023-07-20T13:41:45;3.15;;;0.93;;
15693;SDS011;7947;48.834;9.132;2023-07-20T13:44:49;0.85;;;0.70;;
15693;SDS011;7947;48.834;9.132;2023-07-20T13:47:52;1.80;;;0.77;;
15693;SDS011;7947;48.834;9.132;2023-07-20T13:50:56;1.00;;;0.70;;
15693;SDS011;7947;48.834;9.132;2023-07-20T13:54:01;1.05;;;0.70;;
15693;SDS011;7947;48.834;9.132;2023-07-20T13:57:24;1.15;;;0.95;;
15693;SDS011;7947;48.834;9.132;2023-07-20T14:00:28;1.67;;;0.63;;
15693;SDS011;7947;48.834;9.132;2023-07-20T14:03:36;2.05;;;0.82;;
15693;SDS011;7947;48.834;9.132;2023-07-20T14:06:42;1.23;;;0.93;;
15693;SDS011;7947;48.834;9.132;2023-07-20T14:09:46;1.30;;;1.13;;
15693;SDS011;7947;48.834;9.132;2023-07-20T14:12:52;1.42;;;0.80;;
15693;SDS011;7947;48.834;9.132;2023-07-20T14:15:54;0.63;;;0.55;;
15693;SDS011;7947;48.834;9.132;2023-07-20T14:18:58;1.50;;;0.70;;
15693;SDS011;7947;48.834;9.132;2023-07-20T14:22:02;0.70;;;0.68;;
15693;SDS011;7947;48.834;9.132;2023-07-20T14:25:05;1.90;;;0.90;;
15693;SDS011;7947;48.834;9.132;2023-07-20T14:28:10;1.40;;;0.63;;
15693;SDS011;7947;48.834;9.132;2023-07-20T14:31:13;1.98;;;0.57;;
15693;SDS011;7947;48.834;9.132;2023-07-20T14:34:16;2.97;;;0.70;;
15693;SDS011;7947;48.834;9.132;2023-07-20T14:37:21;0.82;;;0.60;;
15693;SDS011;7947;48.834;9.132;2023-07-20T14:40:24;0.60;;;0.60;;
15693;SDS011;7947;48.834;9.132;2023-07-20T14:43:27;1.70;;;0.80;;
15693;SDS011;7947;48.834;9.132;2023-07-20T14:46:30;1.13;;;0.80;;
15693;SDS011;7947;48.834;9.132;2023-07-20T14:49:33;1.42;;;0.60;;
15693;SDS011;7947;48.834;9.132;2023-07-20T14:52:38;0.80;;;0.70;;
15693;SDS011;7947;48.834;9.132;2023-07-20T14:55:44;0.82;;;0.68;;
15693;SDS011;7947;48.834;9.132;2023-07-20T14:58:47;0.75;;;0.70;;
15693;SDS011;7947;48.834;9.132;2023-07-20T15:01:50;1.25;;;0.65;;
15693;SDS011;7947;48.834;9.132;2023-07-20T15:04:54;2.67;;;0.80;;
15693;SDS011;7947;48.834;9.132;2023-07-20T15:07:59;1.13;;;1.00;;
15693;SDS011;7947;48.834;9.132;2023-07-20T15:11:02;0.75;;;0.65;;
15693;SDS011;7947;48.834;9.132;2023-07-20T15:14:05;1.45;;;0.95;;
15693;SDS011;7947;48.834;9.132;2023-07-20T15:17:08;0.90;;;0.80;;
15693;SDS011;7947;48.834;9.132;2023-07-20T15:20:12;1.15;;;0.80;;
15693;SDS011;7947;48.834;9.132;2023-07-20T15:23:17;1.73;;;1.00;;
15693;SDS011;7947;48.834;9.132;2023-07-20T15:26:20;0.70;;;0.68;;
15693;SDS011;7947;48.834;9.132;2023-07-20T15:29:23;0.75;;;0.70;;
15693;SDS011;7947;48.834;9.132;2023-07-20T15:32:29;1.42;;;0.43;;
15693;SDS011;7947;48.834;9.132;2023-07-20T15:35:52;0.60;;;0.57;;
15693;SDS011;7947;48.834;9.132;2023-07-20T15:38:56;1.08;;;0.80;;
15693;SDS011;7947;48.834;9.132;2023-07-20T15:41:59;1.30;;;0.70;;
15693;SDS011;7947;48.834;9.132;2023-07-20T15:45:03;0.90;;;0.80;;
15693;SDS011;7947;48.834;9.132;2023-07-20T15:48:07;0.70;;;0.70;;
15693;SDS011;7947;48.834;9.132;2023-07-20T15:51:10;1.20;;;0.98;;
15693;SDS011;7947;48.834;9.132;2023-07-20T15:54:14;0.52;;;0.43;;
15693;SDS011;7947;48.834;9.132;2023-07-20T15:57:17;1.15;;;0.77;;
15693;SDS011;7947;48.834;9.132;2023-07-20T16:00:20;1.00;;;0.75;;
15693;SDS011;7947;48.834;9.132;2023-07-20T16:03:24;1.17;;;0.70;;
15693;SDS011;7947;48.834;9.132;2023-07-20T16:06:37;1.00;;;0.70;;
15693;SDS011;7947;48.834;9.132;2023-07-20T16:09:42;1.13;;;0.80;;
15693;SDS011;7947;48.834;9.132;2023-07-20T16:12:47;1.48;;;0.88;;
15693;SDS011;7947;48.834;9.132;2023-07-20T16:15:50;1.60;;;0.80;;
15693;SDS011;7947;48.834;9.132;2023-07-20T16:18:54;1.20;;;0.70;;
15693;SDS011;7947;48.834;9.132;2023-07-20T16:21:57;1.73;;;0.68;;
15693;SDS011;7947;48.834;9.132;2023-07-20T16:25:02;1.33;;;0.80;;
15693;SDS011;7947;48.834;9.132;2023-07-20T16:28:05;1.77;;;0.80;;
15693;SDS011;7947;48.834;9.132;2023-07-20T16:31:08;1.20;;;0.70;;
15693;SDS011;7947;48.834;9.132;2023-07-20T16:34:12;0.60;;;0.60;;
15693;SDS011;7947;48.834;9.132;2023-07-20T16:37:14;0.88;;;0.63;;
15693;SDS011;7947;48.834;9.132;2023-07-20T16:40:22;0.85;;;0.60;;
15693;SDS011;7947;48.834;9.132;2023-07-20T16:43:28;0.82;;;0.68;;
15693;SDS011;7947;48.834;9.132;2023-07-20T16:46:34;0.90;;;0.63;;
15693;SDS011;7947;48.834;9.132;2023-07-20T16:49:39;1.10;;;0.80;;
15693;SDS011;7947;48.834;9.132;2023-07-20T16:52:42;0.98;;;0.80;;
15693;SDS011;7947;48.834;9.132;2023-07-20T16:55:48;0.75;;;0.65;;
15693;SDS011;7947;48.834;9.132;2023-07-20T16:58:52;1.38;;;1.00;;
15693;SDS011;7947;48.834;9.132;2023-07-20T17:01:55;0.82;;;0.73;;
15693;SDS011;7947;48.834;9.132;2023-07-20T17:04:58;3.08;;;1.00;;
15693;SDS011;7947;48.834;9.132;2023-07-20T17:08:01;1.25;;;0.82;;
15693;SDS011;7947;48.834;9.132;2023-07-20T17:11:05;1.05;;;0.85;;
15693;SDS011;7947;48.834;9.132;2023-07-20T17:14:09;1.80;;;0.80;;
15693;SDS011;7947;48.834;9.132;2023-07-20T17:17:12;1.63;;;0.80;;
15693;SDS011;7947;48.834;9.132;2023-07-20T17:20:15;1.15;;;0.88;;
15693;SDS011;7947;48.834;9.132;2023-07-20T17:23:21;2.53;;;0.68;;
15693;SDS011;7947;48.834;9.132;2023-07-20T17:26:28;0.45;;;0.45;;
15693;SDS011;7947;48.834;9.132;2023-07-20T17:29:34;1.77;;;0.65;;
15693;SDS011;7947;48.834;9.132;2023-07-20T17:32:37;0.93;;;0.60;;
15693;SDS011;7947;48.834;9.132;2023-07-20T17:35:40;1.02;;;0.68;;
15693;SDS011;7947;48.834;9.132;2023-07-20T17:38:43;0.93;;;0.73;;
15693;SDS011;7947;48.834;9.132;2023-07-20T17:41:47;1.42;;;0.88;;
15693;SDS011;7947;48.834;9.132;2023-07-20T17:44:51;0.88;;;0.82;;
15693;SDS011;7947;48.834;9.132;2023-07-20T17:47:54;0.90;;;0.55;;
15693;SDS011;7947;48.834;9.132;2023-07-20T17:50:57;1.30;;;0.80;;
15693;SDS011;7947;48.834;9.132;2023-07-20T17:53:59;1.52;;;0.90;;
15693;SDS011;7947;48.834;9.132;2023-07-20T17:57:04;0.90;;;0.70;;
15693;SDS011;7947;48.834;9.132;2023-07-20T18:00:08;1.33;;;0.55;;
15693;SDS011;7947;48.834;9.132;2023-07-20T18:03:15;0.95;;;0.50;;
15693;SDS011;7947;48.834;9.132;2023-07-20T18:06:18;0.98;;;0.80;;
15693;SDS011;7947;48.834;9.132;2023-07-20T18:09:21;0.93;;;0.70;;
15693;SDS011;7947;48.834;9.132;2023-07-20T18:12:26;0.45;;;0.45;;
15693;SDS011;7947;48.834;9.132;2023-07-20T18:15:29;0.40;;;0.32;;
15693;SDS011;7947;48.834;9.132;2023-07-20T18:18:32;1.20;;;0.82;;
15693;SDS011;7947;48.834;9.132;2023-07-20T18:21:35;1.75;;;0.70;;
15693;SDS011;7947;48.834;9.132;2023-07-20T18:24:37;0.95;;;0.57;;
15693;SDS011;7947;48.834;9.132;2023-07-20T18:27:42;0.95;;;0.60;;
15693;SDS011;7947;48.834;9.132;2023-07-20T18:30:45;0.60;;;0.60;;
15693;SDS011;7947;48.834;9.132;2023-07-20T18:33:48;0.80;;;0.60;;
15693;SDS011;7947;48.834;9.132;2023-07-20T18:36:53;0.70;;;0.60;;
15693;SDS011;7947;48.834;9.132;2023-07-20T18:39:56;0.98;;;0.73;;
15693;SDS011;7947;48.834;9.132;2023-07-20T18:43:00;0.70;;;0.68;;
15693;SDS011;7947;48.834;9.132;2023-07-20T18:46:03;1.50;;;0.85;;
15693;SDS011;7947;48.834;9.132;2023-07-20T18:49:06;1.27;;;0.60;;